Time;durP1;ratioP1;P1;durP2;ratioP2;P2;SDS_P1;SDS_P2;PMS_P1;PMS_P2;Temp;Humidity;BMP_temperature;BMP_pressure;BME280_temperature;BME280_humidity;BME280_pressure;Samples;Min_cycle;Max_cycle;Signal;HPM_P1;HPM_P2
2024/01/16 00:00:00;;;;;;;6.77;3.50;;;0.10;99.90;;;;;;5094739;28;20349;-77
2024/01/16 00:02:25;;;;;;;7.63;3.93;;;0.00;99.90;;;;;;5095094;28;20020;-77
2024/01/16 00:04:51;;;;;;;7.80;4.17;;;0.10;99.90;;;;;;5094702;28;20035;-77
2024/01/16 00:07:17;;;;;;;7.60;3.80;;;0.00;99.90;;;;;;5092775;28;20097;-77
2024/01/16 00:09:42;;;;;;;6.10;3.33;;;0.10;99.90;;;;;;5087231;28;20356;-78
2024/01/16 00:12:08;;;;;;;8.77;3.80;;;0.10;99.90;;;;;;5094250;28;20399;-77
2024/01/16 00:14:37;;;;;;;7.03;3.43;;;0.10;99.90;;;;;;5094475;28;20058;-78
2024/01/16 00:17:03;;;;;;;7.80;3.60;;;0.10;99.90;;;;;;5095071;28;20028;-77
2024/01/16 00:19:29;;;;;;;6.33;3.33;;;0.10;99.90;;;;;;5095248;28;20078;-77
2024/01/16 00:21:54;;;;;;;10.43;3.90;;;0.10;99.90;;;;;;5094511;28;20112;-76
2024/01/16 00:24:20;;;;;;;9.63;4.00;;;0.10;99.90;;;;;;5113520;28;20081;-77
2024/01/16 00:26:46;;;;;;;8.57;3.63;;;0.10;99.90;;;;;;5094668;28;20464;-77
2024/01/16 00:29:12;;;;;;;8.77;3.60;;;0.20;99.90;;;;;;5094922;28;20072;-77
2024/01/16 00:31:40;;;;;;;6.90;3.97;;;0.20;99.90;;;;;;5112487;28;20110;-77
2024/01/16 00:34:06;;;;;;;7.70;3.40;;;0.20;99.90;;;;;;5094876;28;20024;-77
2024/01/16 00:36:32;;;;;;;9.37;3.70;;;0.20;99.90;;;;;;5095126;28;20085;-77
2024/01/16 00:38:57;;;;;;;6.37;3.40;;;0.30;99.90;;;;;;5112677;28;20412;-77
2024/01/16 00:41:23;;;;;;;6.80;3.50;;;0.20;99.90;;;;;;5112989;28;20048;-78
2024/01/16 00:43:48;;;;;;;7.80;3.53;;;0.30;99.90;;;;;;5094527;28;20485;-77
2024/01/16 00:46:14;;;;;;;6.93;3.50;;;0.30;99.90;;;;;;5095049;28;20023;-78
2024/01/16 00:48:40;;;;;;;8.17;3.40;;;0.30;99.90;;;;;;5112506;28;20085;-78
2024/01/16 00:51:05;;;;;;;8.73;3.60;;;0.30;99.90;;;;;;5095006;28;20051;-77
2024/01/16 00:53:31;;;;;;;8.70;3.70;;;0.30;99.90;;;;;;5097395;28;20045;-77
2024/01/16 00:55:56;;;;;;;7.47;3.23;;;0.30;99.90;;;;;;5116618;28;20424;-77
2024/01/16 00:58:23;;;;;;;9.40;3.40;;;0.30;99.90;;;;;;5116854;28;20080;-77
2024/01/16 01:00:49;;;;;;;10.40;4.50;;;0.40;99.90;;;;;;5098028;28;20020;-77
2024/01/16 01:03:15;;;;;;;11.23;4.40;;;0.40;99.90;;;;;;5098755;28;20102;-77
2024/01/16 01:05:40;;;;;;;6.33;3.37;;;0.40;99.90;;;;;;5097907;28;20427;-77
2024/01/16 01:08:07;;;;;;;8.20;3.50;;;0.40;99.90;;;;;;5098025;28;20073;-77
2024/01/16 01:10:32;;;;;;;8.57;3.40;;;0.40;99.90;;;;;;5098154;28;20020;-77
2024/01/16 01:12:58;;;;;;;7.70;3.50;;;0.40;99.90;;;;;;5116089;28;20031;-77
2024/01/16 01:15:24;;;;;;;11.27;4.10;;;0.40;99.90;;;;;;5098036;28;20019;-77
2024/01/16 01:17:50;;;;;;;7.80;3.23;;;0.40;99.90;;;;;;5097657;28;20456;-77
2024/01/16 01:20:18;;;;;;;6.57;3.30;;;0.40;99.90;;;;;;5098133;28;20077;-77
2024/01/16 01:22:44;;;;;;;7.73;3.50;;;0.40;99.90;;;;;;5115663;28;20399;-77
2024/01/16 01:25:11;;;;;;;7.63;3.30;;;0.40;99.90;;;;;;5116243;28;20337;-77
2024/01/16 01:27:37;;;;;;;9.37;3.23;;;0.30;99.90;;;;;;5097661;28;20031;-83
2024/01/16 01:30:03;;;;;;;9.47;3.43;;;0.40;99.90;;;;;;5097599;28;20020;-77
2024/01/16 01:32:29;;;;;;;7.93;3.63;;;0.30;99.90;;;;;;5116285;28;20054;-77
2024/01/16 01:34:54;;;;;;;7.13;3.93;;;0.30;99.90;;;;;;5097310;28;20020;-76
2024/01/16 01:37:20;;;;;;;10.23;3.00;;;0.30;99.90;;;;;;5097622;28;20401;-77
2024/01/16 01:39:46;;;;;;;8.43;3.60;;;0.30;99.90;;;;;;5097497;28;20016;-77
2024/01/16 01:42:11;;;;;;;6.90;3.30;;;0.30;99.90;;;;;;5097189;28;20040;-77
2024/01/16 01:44:37;;;;;;;9.87;3.80;;;0.30;99.90;;;;;;5097514;28;20066;-77
2024/01/16 01:47:03;;;;;;;13.37;4.10;;;0.30;99.90;;;;;;5097167;28;20020;-77
2024/01/16 01:49:30;;;;;;;7.70;3.50;;;0.30;99.90;;;;;;5115843;28;20020;-76
2024/01/16 01:51:56;;;;;;;8.43;3.57;;;0.20;99.90;;;;;;5096994;28;20020;-77
2024/01/16 01:54:22;;;;;;;7.50;3.53;;;0.30;99.90;;;;;;5115929;28;20463;-77
2024/01/16 01:56:48;;;;;;;7.97;4.00;;;0.20;99.90;;;;;;5115059;28;20019;-77
2024/01/16 01:59:14;;;;;;;8.00;3.27;;;0.20;99.90;;;;;;5097502;28;20027;-77
2024/01/16 02:01:41;;;;;;;8.20;3.67;;;0.10;99.90;;;;;;5096810;28;20058;-78
2024/01/16 02:04:08;;;;;;;10.33;3.60;;;0.20;99.90;;;;;;5096902;28;20020;-78
2024/01/16 02:06:34;;;;;;;14.67;4.60;;;0.20;99.90;;;;;;5097565;28;20026;-77
2024/01/16 02:08:59;;;;;;;7.90;3.17;;;0.20;99.90;;;;;;5096542;28;20384;-78
2024/01/16 02:11:28;;;;;;;9.57;3.80;;;0.20;99.90;;;;;;5097418;28;20019;-77
2024/01/16 02:13:53;;;;;;;9.60;4.03;;;0.10;99.90;;;;;;5114955;28;20019;-78
2024/01/16 02:16:23;;;;;;;6.97;3.83;;;0.10;99.90;;;;;;5097060;28;20016;-78
2024/01/16 02:18:50;;;;;;;8.47;3.63;;;0.20;99.90;;;;;;5096970;28;20030;-77
2024/01/16 02:21:20;;;;;;;10.80;3.40;;;0.10;99.90;;;;;;5097147;28;20039;-77
2024/01/16 02:23:46;;;;;;;9.83;4.10;;;0.10;99.90;;;;;;5114819;28;20029;-78
2024/01/16 02:26:14;;;;;;;8.47;3.70;;;0.10;99.90;;;;;;5096814;28;20122;-77
2024/01/16 02:28:40;;;;;;;7.40;3.43;;;0.10;99.90;;;;;;5096596;28;20032;-77
2024/01/16 02:31:07;;;;;;;6.97;3.43;;;0.10;99.90;;;;;;5096501;28;20326;-78
2024/01/16 02:33:33;;;;;;;8.83;3.50;;;0.10;99.90;;;;;;5096692;28;20019;-78
2024/01/16 02:35:58;;;;;;;8.30;3.57;;;0.00;99.90;;;;;;5096017;28;20068;-77
2024/01/16 02:38:24;;;;;;;7.93;3.90;;;0.00;99.90;;;;;;5114760;28;20027;-78
2024/01/16 02:40:50;;;;;;;7.80;3.70;;;0.00;99.90;;;;;;5113650;28;20043;-78
2024/01/16 02:43:16;;;;;;;6.33;3.23;;;0.00;99.90;;;;;;5096468;28;20099;-77
2024/01/16 02:45:42;;;;;;;5.70;3.00;;;0.00;99.90;;;;;;5114199;28;20475;-79
2024/01/16 02:48:08;;;;;;;10.17;4.07;;;-0.10;99.90;;;;;;5114501;28;20034;-77
2024/01/16 02:50:33;;;;;;;9.20;3.87;;;-0.10;99.90;;;;;;5096544;28;20023;-76
2024/01/16 02:52:59;;;;;;;7.60;3.47;;;-0.10;99.90;;;;;;5095769;28;20349;-77
2024/01/16 02:55:25;;;;;;;8.33;3.60;;;-0.10;99.90;;;;;;5095868;28;20016;-77
2024/01/16 02:57:50;;;;;;;10.07;3.60;;;-0.10;99.90;;;;;;5095805;28;20058;-77
2024/01/16 03:00:17;;;;;;;8.47;3.10;;;-0.20;99.90;;;;;;5096546;28;20460;-78
2024/01/16 03:02:43;;;;;;;8.07;3.57;;;-0.20;99.90;;;;;;5113655;28;20409;-83
2024/01/16 03:05:10;;;;;;;6.90;3.30;;;-0.20;99.90;;;;;;5096073;28;20016;-78
2024/01/16 03:07:36;;;;;;;7.53;3.20;;;-0.20;99.90;;;;;;5095873;28;20375;-77
2024/01/16 03:10:02;;;;;;;7.20;3.23;;;-0.30;99.90;;;;;;5095489;28;20044;-78
2024/01/16 03:12:28;;;;;;;7.40;3.60;;;-0.20;99.90;;;;;;5096004;28;20031;-77
2024/01/16 03:14:54;;;;;;;6.83;3.40;;;-0.20;99.90;;;;;;5094864;28;20513;-78
2024/01/16 03:17:20;;;;;;;5.90;3.00;;;-0.20;99.90;;;;;;5096071;28;20030;-77
2024/01/16 03:19:45;;;;;;;7.17;3.40;;;-0.20;99.90;;;;;;5095459;28;20066;-77
2024/01/16 03:22:11;;;;;;;7.80;3.10;;;-0.20;99.90;;;;;;5095885;28;20452;-77
2024/01/16 03:24:36;;;;;;;9.60;3.53;;;-0.20;99.90;;;;;;5095255;28;20440;-78
2024/01/16 03:27:04;;;;;;;7.47;3.43;;;-0.20;99.90;;;;;;5095129;28;20026;-77
2024/01/16 03:29:30;;;;;;;6.27;3.13;;;-0.20;99.90;;;;;;5095988;28;20027;-77
2024/01/16 03:31:55;;;;;;;6.97;3.50;;;-0.20;99.90;;;;;;5095164;28;20386;-77
2024/01/16 03:34:21;;;;;;;8.23;3.70;;;-0.20;99.90;;;;;;5095982;28;20019;-78
2024/01/16 03:36:47;;;;;;;7.13;3.20;;;-0.20;99.90;;;;;;5113243;28;20547;-78
2024/01/16 03:39:12;;;;;;;8.67;3.20;;;-0.30;99.90;;;;;;5095932;28;20027;-78
2024/01/16 03:41:38;;;;;;;8.00;3.50;;;-0.30;99.90;;;;;;5091689;28;20044;-77
2024/01/16 03:44:04;;;;;;;9.40;3.53;;;-0.30;99.90;;;;;;5091712;28;20024;-77
2024/01/16 03:46:29;;;;;;;8.83;4.13;;;-0.30;99.90;;;;;;5093131;28;20027;-77
2024/01/16 03:48:55;;;;;;;9.80;4.13;;;-0.30;99.90;;;;;;5091397;28;20050;-77
2024/01/16 03:51:20;;;;;;;9.13;3.63;;;-0.30;99.90;;;;;;5093069;28;20476;-76
2024/01/16 03:53:46;;;;;;;9.87;4.40;;;-0.30;99.90;;;;;;5092588;28;20024;-79
2024/01/16 03:56:12;;;;;;;8.47;3.60;;;-0.40;99.90;;;;;;5092961;28;20027;-77
2024/01/16 03:58:39;;;;;;;11.17;4.50;;;-0.40;99.90;;;;;;5092979;28;20449;-76
2024/01/16 04:01:05;;;;;;;10.17;4.30;;;-0.40;99.90;;;;;;5091342;28;20024;-76
2024/01/16 04:03:30;;;;;;;9.97;4.07;;;-0.50;99.90;;;;;;5091650;28;20058;-76
2024/01/16 04:05:56;;;;;;;11.27;3.90;;;-0.50;99.90;;;;;;5092431;28;20361;-77
2024/01/16 04:08:21;;;;;;;9.13;4.77;;;-0.50;99.90;;;;;;5091604;28;20225;-76
2024/01/16 04:10:47;;;;;;;8.40;3.73;;;-0.50;99.90;;;;;;5091312;28;20024;-78
2024/01/16 04:13:13;;;;;;;9.37;4.07;;;-0.50;99.90;;;;;;5092813;28;20036;-76
2024/01/16 04:15:39;;;;;;;10.13;3.83;;;-0.60;99.90;;;;;;5092792;28;20031;-76
2024/01/16 04:18:05;;;;;;;9.87;3.90;;;-0.60;99.90;;;;;;5091199;28;20134;-76
2024/01/16 04:20:30;;;;;;;7.93;4.33;;;-0.60;99.90;;;;;;5092907;28;20043;-77
2024/01/16 04:22:57;;;;;;;11.53;4.13;;;-0.60;99.90;;;;;;5091243;28;20020;-77
2024/01/16 04:25:23;;;;;;;9.93;3.83;;;-0.60;99.90;;;;;;5092947;28;20022;-77
2024/01/16 04:27:49;;;;;;;10.93;4.27;;;-0.60;99.90;;;;;;5094226;28;20122;-77
2024/01/16 04:30:14;;;;;;;10.60;4.57;;;-0.60;99.90;;;;;;5095661;28;20445;-77
2024/01/16 04:32:40;;;;;;;8.50;4.40;;;-0.70;99.90;;;;;;5095352;28;20142;-77
2024/01/16 04:35:06;;;;;;;9.20;4.43;;;-0.70;99.90;;;;;;5095341;28;20037;-77
2024/01/16 04:37:32;;;;;;;8.57;3.67;;;-0.70;99.90;;;;;;5096573;28;20105;-77
2024/01/16 04:39:59;;;;;;;8.20;3.63;;;-0.70;99.90;;;;;;5096236;28;20030;-78
2024/01/16 04:42:24;;;;;;;9.90;4.27;;;-0.70;99.90;;;;;;5095025;28;20387;-77
2024/01/16 04:44:50;;;;;;;11.43;3.90;;;-0.70;99.90;;;;;;5096190;28;20059;-78
2024/01/16 04:47:15;;;;;;;7.83;3.37;;;-0.70;99.90;;;;;;5096314;28;20024;-77
2024/01/16 04:49:44;;;;;;;8.83;3.90;;;-0.80;99.90;;;;;;5095316;28;20396;-77
2024/01/16 04:52:10;;;;;;;9.77;3.57;;;-0.70;99.90;;;;;;5094699;28;20031;-77
2024/01/16 04:54:36;;;;;;;10.40;3.80;;;-0.80;99.90;;;;;;5096128;28;20054;-76
2024/01/16 04:57:01;;;;;;;11.40;4.00;;;-0.80;99.90;;;;;;5094689;28;20042;-76
2024/01/16 04:59:27;;;;;;;10.40;4.30;;;-0.80;99.90;;;;;;5095167;28;20024;-77
2024/01/16 05:01:52;;;;;;;9.50;4.07;;;-0.80;99.90;;;;;;5094513;28;20024;-77
2024/01/16 05:04:18;;;;;;;9.27;4.17;;;-0.80;99.90;;;;;;5095131;28;20058;-77
2024/01/16 05:06:43;;;;;;;8.90;3.83;;;-0.80;99.90;;;;;;5096130;28;20028;-77
2024/01/16 05:09:09;;;;;;;8.13;3.70;;;-0.80;99.90;;;;;;5094130;28;20196;-77
2024/01/16 05:11:35;;;;;;;14.03;4.47;;;-0.80;99.90;;;;;;5094511;28;20100;-77
2024/01/16 05:14:01;;;;;;;8.73;3.63;;;-0.80;99.90;;;;;;5095746;28;20030;-77
2024/01/16 05:16:27;;;;;;;12.70;4.77;;;-0.80;99.90;;;;;;5094668;28;20464;-77
2024/01/16 05:18:53;;;;;;;9.37;4.20;;;-0.80;99.90;;;;;;5094091;28;20457;-77
2024/01/16 05:21:19;;;;;;;8.47;4.17;;;-0.90;99.90;;;;;;5094521;28;20024;-77
2024/01/16 05:23:45;;;;;;;11.43;4.50;;;-0.90;99.90;;;;;;5095830;28;20016;-77
2024/01/16 05:26:11;;;;;;;8.57;4.43;;;-0.90;99.90;;;;;;5094459;28;20115;-78
2024/01/16 05:28:38;;;;;;;10.53;4.70;;;-1.00;99.90;;;;;;5094778;28;20035;-78
2024/01/16 05:31:04;;;;;;;10.67;4.67;;;-0.90;99.90;;;;;;5095377;28;20069;-78
2024/01/16 05:33:29;;;;;;;11.10;4.37;;;-1.00;99.90;;;;;;5094648;28;20020;-78
2024/01/16 05:35:57;;;;;;;8.27;3.73;;;-1.00;99.90;;;;;;5094065;28;20020;-78
2024/01/16 05:38:22;;;;;;;9.47;4.60;;;-1.00;99.90;;;;;;5094788;28;20020;-77
2024/01/16 05:40:48;;;;;;;12.90;4.33;;;-1.00;99.90;;;;;;5097270;28;20070;-77
2024/01/16 05:43:14;;;;;;;10.47;4.13;;;-1.00;99.90;;;;;;5097203;28;20030;-78
2024/01/16 05:45:40;;;;;;;9.20;3.97;;;-1.00;99.90;;;;;;5097533;28;20108;-77
2024/01/16 05:48:07;;;;;;;9.13;3.90;;;-1.00;99.90;;;;;;5097018;28;20074;-78
2024/01/16 05:50:36;;;;;;;13.63;4.70;;;-1.10;99.90;;;;;;5115686;28;20057;-77
2024/01/16 05:53:02;;;;;;;10.13;4.40;;;-1.00;99.90;;;;;;5097023;28;20022;-78
2024/01/16 05:55:31;;;;;;;11.60;4.50;;;-1.00;99.90;;;;;;5097232;28;20495;-78
2024/01/16 05:57:59;;;;;;;13.20;4.70;;;-1.00;99.90;;;;;;5096895;28;20027;-78
2024/01/16 06:00:25;;;;;;;6.97;3.70;;;-1.10;99.90;;;;;;5097387;28;20115;-78
2024/01/16 06:02:50;;;;;;;13.40;4.67;;;-1.10;99.90;;;;;;5097473;28;20364;-77
2024/01/16 06:05:16;;;;;;;9.13;4.37;;;-1.10;99.90;;;;;;5096766;28;20028;-77
2024/01/16 06:07:41;;;;;;;11.83;5.10;;;-1.10;99.90;;;;;;5097172;28;20059;-78
2024/01/16 06:10:07;;;;;;;10.27;4.80;;;-1.10;99.90;;;;;;5114624;28;20029;-77
2024/01/16 06:12:34;;;;;;;10.20;4.93;;;-1.20;99.90;;;;;;5097073;28;20026;-77
2024/01/16 06:15:00;;;;;;;13.60;5.00;;;-1.10;99.90;;;;;;5096654;28;20055;-77
2024/01/16 06:17:25;;;;;;;14.07;5.07;;;-1.20;99.90;;;;;;5097173;28;20377;-77
2024/01/16 06:19:51;;;;;;;12.03;5.10;;;-1.10;99.90;;;;;;5115125;28;20020;-77
2024/01/16 06:22:16;;;;;;;10.77;4.57;;;-1.10;99.90;;;;;;5114688;28;20068;-78
2024/01/16 06:24:42;;;;;;;8.50;3.80;;;-1.10;99.90;;;;;;5096941;28;20058;-77
2024/01/16 06:27:07;;;;;;;11.13;4.47;;;-1.10;99.90;;;;;;5096271;28;20034;-77
2024/01/16 06:29:33;;;;;;;13.80;5.23;;;-1.10;99.90;;;;;;5097048;28;20448;-77
2024/01/16 06:31:59;;;;;;;11.57;4.13;;;-1.10;99.90;;;;;;5114427;28;20473;-76
2024/01/16 06:34:24;;;;;;;10.20;4.37;;;-1.10;99.90;;;;;;5096641;28;20554;-77
2024/01/16 06:36:50;;;;;;;9.93;4.47;;;-1.10;99.90;;;;;;5096676;28;20402;-77
2024/01/16 06:39:15;;;;;;;10.77;4.13;;;-1.10;99.90;;;;;;5096036;28;20364;-77
2024/01/16 06:41:41;;;;;;;14.43;5.23;;;-1.10;99.90;;;;;;5096151;28;20043;-77
2024/01/16 06:44:07;;;;;;;12.37;4.70;;;-1.10;99.90;;;;;;5095889;28;20114;-77
2024/01/16 06:46:32;;;;;;;10.37;4.37;;;-1.10;99.90;;;;;;5114672;28;20015;-77
2024/01/16 06:49:02;;;;;;;9.77;4.33;;;-1.10;99.90;;;;;;5113998;28;20035;-80
2024/01/16 06:51:27;;;;;;;12.93;4.80;;;-1.10;99.90;;;;;;5095297;28;20564;-76
2024/01/16 06:53:53;;;;;;;11.70;4.83;;;-1.10;99.90;;;;;;5096289;28;20452;-76
2024/01/16 06:56:19;;;;;;;10.53;4.97;;;-1.10;99.90;;;;;;5095545;28;20031;-76
2024/01/16 06:58:44;;;;;;;12.33;4.87;;;-1.10;99.90;;;;;;5095903;28;20055;-77
2024/01/16 07:01:10;;;;;;;11.37;4.77;;;-1.10;99.90;;;;;;5095691;28;20069;-76
2024/01/16 07:03:36;;;;;;;9.70;4.20;;;-1.10;99.90;;;;;;5095953;28;20471;-76
2024/01/16 07:06:02;;;;;;;12.93;4.67;;;-1.10;99.90;;;;;;5095276;28;20023;-77
2024/01/16 07:08:28;;;;;;;10.90;4.77;;;-1.10;99.90;;;;;;5095774;28;20039;-76
2024/01/16 07:10:53;;;;;;;12.90;4.60;;;-1.10;99.90;;;;;;5113822;28;20024;-76
2024/01/16 07:13:19;;;;;;;11.07;5.03;;;-1.10;99.90;;;;;;5095256;28;20027;-76
2024/01/16 07:15:45;;;;;;;12.37;4.93;;;-1.10;99.90;;;;;;5113604;28;20057;-76
2024/01/16 07:18:10;;;;;;;12.63;5.17;;;-1.10;99.90;;;;;;5094972;28;20020;-76
2024/01/16 07:20:36;;;;;;;13.53;4.53;;;-1.10;99.90;;;;;;5095771;28;20077;-76
2024/01/16 07:23:02;;;;;;;11.57;5.30;;;-1.10;99.90;;;;;;5095257;28;20363;-76
2024/01/16 07:25:28;;;;;;;13.23;5.40;;;-1.10;99.90;;;;;;5113930;28;20026;-76
2024/01/16 07:27:53;;;;;;;12.37;4.47;;;-1.10;99.90;;;;;;5095662;28;20031;-77
2024/01/16 07:30:19;;;;;;;11.60;5.03;;;-1.10;99.90;;;;;;5095160;28;20019;-77
2024/01/16 07:32:45;;;;;;;10.50;4.90;;;-1.10;99.90;;;;;;5095571;28;20076;-76
2024/01/16 07:35:10;;;;;;;11.17;4.60;;;-1.10;99.90;;;;;;5095318;28;20016;-77
2024/01/16 07:37:36;;;;;;;10.70;4.57;;;-1.10;99.90;;;;;;5095885;28;20435;-77
2024/01/16 07:40:02;;;;;;;11.17;4.43;;;-1.10;99.90;;;;;;5113120;28;20218;-77
2024/01/16 07:42:33;;;;;;;11.70;4.97;;;-1.10;99.90;;;;;;5094943;28;20051;-76
2024/01/16 07:45:04;;;;;;;10.85;4.85;;;-1.10;99.90;;;;;;5095355;28;20024;-86
2024/01/16 07:47:31;;;;;;;12.90;5.03;;;-1.10;99.90;;;;;;5095741;28;20376;-77
2024/01/16 07:49:57;;;;;;;11.13;4.43;;;-1.00;99.90;;;;;;5095370;28;20118;-76
2024/01/16 07:52:23;;;;;;;15.87;5.20;;;-1.00;99.90;;;;;;5094814;28;20024;-76
2024/01/16 07:54:48;;;;;;;9.03;4.57;;;-1.00;99.90;;;;;;5095172;28;20086;-76
2024/01/16 07:57:14;;;;;;;12.53;4.80;;;-1.00;99.90;;;;;;5094736;28;20121;-76
2024/01/16 07:59:41;;;;;;;12.33;4.57;;;-1.00;99.90;;;;;;5095439;28;20072;-76
2024/01/16 08:02:06;;;;;;;9.37;4.27;;;-1.00;99.90;;;;;;5093389;28;20027;-78
2024/01/16 08:04:32;;;;;;;9.07;4.40;;;-0.90;99.90;;;;;;5094606;28;20020;-77
2024/01/16 08:06:58;;;;;;;10.20;4.10;;;-0.90;99.90;;;;;;5094926;28;20026;-77
2024/01/16 08:09:24;;;;;;;10.27;4.67;;;-0.80;99.90;;;;;;5112395;28;20028;-77
2024/01/16 08:11:49;;;;;;;11.30;4.43;;;-0.90;99.90;;;;;;5094255;28;20020;-76
2024/01/16 08:14:15;;;;;;;10.37;4.83;;;-0.80;99.90;;;;;;5093839;28;20076;-78
2024/01/16 08:16:41;;;;;;;13.40;5.00;;;-0.80;99.90;;;;;;5112416;28;20460;-77
2024/01/16 08:19:06;;;;;;;9.87;4.40;;;-0.80;99.90;;;;;;5093783;28;20023;-77
2024/01/16 08:21:32;;;;;;;13.80;4.30;;;-0.80;99.90;;;;;;5113005;28;20456;-78
2024/01/16 08:23:58;;;;;;;10.97;5.10;;;-0.80;99.90;;;;;;5112838;28;20019;-78
2024/01/16 08:26:24;;;;;;;10.30;4.50;;;-0.80;99.90;;;;;;5094465;28;20027;-77
2024/01/16 08:28:50;;;;;;;12.60;4.90;;;-0.80;99.90;;;;;;5094670;28;20031;-77
2024/01/16 08:31:19;;;;;;;13.87;4.87;;;-0.80;99.90;;;;;;5094470;28;20034;-76
2024/01/16 08:33:45;;;;;;;10.97;4.77;;;-0.80;99.90;;;;;;5113324;28;20028;-78
2024/01/16 08:36:11;;;;;;;11.23;4.97;;;-0.80;99.90;;;;;;5094665;28;20016;-78
2024/01/16 08:38:36;;;;;;;9.00;4.20;;;-0.70;99.90;;;;;;5095083;28;20443;-78
2024/01/16 08:41:06;;;;;;;13.70;4.83;;;-0.70;99.90;;;;;;5094840;28;20396;-84
2024/01/16 08:43:34;;;;;;;11.47;5.30;;;-0.70;99.90;;;;;;5094917;28;20126;-77
2024/01/16 08:46:00;;;;;;;10.13;4.47;;;-0.70;99.90;;;;;;5113433;28;20023;-77
2024/01/16 08:48:25;;;;;;;11.27;4.87;;;-0.70;99.90;;;;;;5112784;28;20031;-77
2024/01/16 08:50:52;;;;;;;11.10;6.00;;;-0.70;99.90;;;;;;5095319;28;20341;-78
2024/01/16 08:53:17;;;;;;;11.73;5.20;;;-0.60;99.90;;;;;;5080194;28;20158;-77
2024/01/16 08:55:43;;;;;;;9.77;4.77;;;-0.60;99.90;;;;;;5093121;28;20070;-78
2024/01/16 08:58:08;;;;;;;14.33;5.73;;;-0.60;99.90;;;;;;5074183;28;20023;-76
2024/01/16 09:00:34;;;;;;;12.27;5.63;;;-0.60;99.90;;;;;;5074722;28;20410;-77
2024/01/16 09:03:00;;;;;;;11.43;5.67;;;-0.60;99.90;;;;;;5074465;28;20026;-77
2024/01/16 09:05:26;;;;;;;12.00;5.10;;;-0.60;99.90;;;;;;5074417;28;20024;-79
2024/01/16 09:07:54;;;;;;;9.60;4.70;;;-0.50;99.90;;;;;;5111430;28;20080;-78
2024/01/16 09:10:20;;;;;;;13.90;5.80;;;-0.50;99.90;;;;;;5095467;28;20073;-78
2024/01/16 09:12:46;;;;;;;12.47;4.73;;;-0.50;99.90;;;;;;5113643;28;20023;-77
2024/01/16 09:15:12;;;;;;;13.67;5.47;;;-0.50;99.90;;;;;;5098335;28;20522;-79
2024/01/16 09:17:38;;;;;;;11.47;5.37;;;-0.50;99.90;;;;;;5099247;28;20096;-79
2024/01/16 09:20:06;;;;;;;17.13;5.67;;;-0.50;99.90;;;;;;5098954;28;20030;-79
2024/01/16 09:22:32;;;;;;;11.87;5.10;;;-0.40;99.90;;;;;;5098781;28;20024;-77
2024/01/16 09:24:58;;;;;;;11.23;5.03;;;-0.40;99.90;;;;;;5116749;28;20421;-77
2024/01/16 09:27:23;;;;;;;11.83;4.70;;;-0.30;99.90;;;;;;5098131;28;20031;-80
2024/01/16 09:29:49;;;;;;;10.90;5.00;;;-0.30;99.90;;;;;;5098211;28;20492;-78
2024/01/16 09:32:14;;;;;;;10.27;5.03;;;-0.30;99.90;;;;;;5098049;28;20020;-79
2024/01/16 09:34:40;;;;;;;14.90;5.57;;;-0.20;99.90;;;;;;5098501;28;20019;-79
2024/01/16 09:37:05;;;;;;;11.37;5.33;;;-0.20;99.90;;;;;;5100040;28;20080;-81
2024/01/16 09:39:32;;;;;;;11.63;4.90;;;-0.20;99.90;;;;;;5077616;28;20027;-78
2024/01/16 09:42:01;;;;;;;13.70;5.33;;;-0.10;99.90;;;;;;5106991;28;20043;-77
2024/01/16 09:44:28;;;;;;;11.90;4.87;;;-0.10;99.90;;;;;;5116151;27;20120;-77
2024/01/16 09:46:56;;;;;;;12.43;5.60;;;-0.10;99.90;;;;;;5115988;28;20119;-77
2024/01/16 09:49:23;;;;;;;11.97;4.87;;;0.00;99.90;;;;;;5116040;28;20429;-77
2024/01/16 09:52:09;;;;;;;11.50;5.63;;;0.00;99.90;;;;;;5111483;28;20034;-77
2024/01/16 09:54:34;;;;;;;7.93;4.60;;;0.00;99.90;;;;;;5097745;28;20046;-78
2024/01/16 09:57:04;;;;;;;10.60;4.60;;;0.00;99.90;;;;;;5098047;28;20444;-77
2024/01/16 09:59:31;;;;;;;12.03;5.20;;;-0.10;99.90;;;;;;5115371;28;20468;-77
2024/01/16 10:01:58;;;;;;;13.13;5.50;;;-0.10;99.90;;;;;;5080628;28;20074;-81
2024/01/16 10:04:23;;;;;;;14.90;5.43;;;0.00;99.90;;;;;;5097708;28;20479;-78
2024/01/16 10:06:51;;;;;;;10.47;4.97;;;0.00;99.90;;;;;;5098225;28;20024;-79
2024/01/16 10:09:17;;;;;;;11.73;5.20;;;0.00;99.90;;;;;;5097250;28;20071;-78
2024/01/16 10:11:42;;;;;;;12.03;5.83;;;0.10;99.90;;;;;;5097234;28;20054;-77
2024/01/16 10:14:09;;;;;;;13.17;4.87;;;0.20;99.90;;;;;;5092062;28;20020;-85
2024/01/16 10:17:05;;;;;;;15.77;5.63;;;0.30;99.90;;;;;;5094572;28;20028;-77
2024/01/16 10:19:31;;;;;;;11.43;4.83;;;0.40;99.90;;;;;;5111024;28;20016;-79
2024/01/16 10:22:02;;;;;;;11.40;4.97;;;0.60;99.90;;;;;;5077671;28;20046;-78
2024/01/16 10:24:28;;;;;;;11.93;5.20;;;0.70;99.90;;;;;;5075626;28;20081;-77
2024/01/16 10:27:02;;;;;;;12.50;4.20;;;0.70;99.90;;;;;;5077116;28;20020;-78
2024/01/16 10:29:28;;;;;;;10.30;4.40;;;0.80;99.90;;;;;;5076357;28;20525;-77
2024/01/16 10:31:53;;;;;;;11.30;4.73;;;0.90;99.90;;;;;;5076154;28;20465;-77
2024/01/16 10:34:23;;;;;;;8.97;4.63;;;1.00;99.90;;;;;;5075938;28;20035;-77
2024/01/16 10:36:52;;;;;;;13.17;5.43;;;0.90;99.90;;;;;;5063213;28;20028;-77
2024/01/16 10:39:18;;;;;;;14.83;5.13;;;0.90;99.90;;;;;;5055935;28;20465;-77
2024/01/16 10:41:55;;;;;;;23.90;8.13;;;1.00;99.90;;;;;;5056115;28;20551;-77
2024/01/16 10:44:21;;;;;;;12.30;4.07;;;1.00;99.90;;;;;;5080506;28;20023;-78
2024/01/16 10:46:46;;;;;;;11.70;4.67;;;1.00;99.90;;;;;;5076141;28;20016;-79
2024/01/16 10:49:12;;;;;;;13.77;5.17;;;0.90;99.90;;;;;;5094158;28;20036;-77
2024/01/16 10:51:41;;;;;;;9.00;4.13;;;1.00;99.90;;;;;;5076327;28;20168;-77
2024/01/16 10:54:13;;;;;;;13.07;4.40;;;1.00;99.90;;;;;;5071988;28;20055;-87
2024/01/16 10:56:44;;;;;;;;;;;1.00;99.90;;;;;;5075605;28;20020;-80
2024/01/16 10:59:21;;;;;;;9.43;4.07;;;1.10;99.90;;;;;;5075212;28;19906;-79
2024/01/16 11:01:51;;;;;;;10.47;4.30;;;1.20;99.90;;;;;;5065630;28;20024;-77
2024/01/16 11:04:18;;;;;;;12.30;4.50;;;1.20;99.90;;;;;;5075479;28;20028;-77
2024/01/16 11:06:44;;;;;;;9.07;4.03;;;1.30;99.90;;;;;;5091402;28;20477;-78
2024/01/16 11:09:15;;;;;;;10.63;4.30;;;1.40;99.90;;;;;;5075086;28;20032;-83
2024/01/16 11:11:43;;;;;;;11.47;4.40;;;1.50;99.90;;;;;;5075496;28;20020;-76
2024/01/16 11:14:10;;;;;;;8.17;3.93;;;1.50;99.90;;;;;;5093004;28;20572;-85
2024/01/16 11:16:36;;;;;;;13.93;4.47;;;1.50;99.90;;;;;;5092646;28;20449;-77
2024/01/16 11:19:07;;;;;;;12.17;4.20;;;1.60;99.90;;;;;;5074988;28;20024;-78
2024/01/16 11:21:34;;;;;;;10.33;4.00;;;1.60;99.90;;;;;;5075754;28;20106;-77
2024/01/16 11:24:00;;;;;;;11.33;4.40;;;1.60;99.90;;;;;;5053017;28;20013;-78
2024/01/16 11:26:32;;;;;;;11.57;4.50;;;1.70;99.90;;;;;;5093589;28;20374;-78
2024/01/16 11:28:59;;;;;;;;;;;1.70;99.90;;;;;;5077021;28;20031;-78
2024/01/16 11:31:36;;;;;;;8.73;3.77;;;1.80;99.90;;;;;;5076981;28;19900;-77
2024/01/16 11:34:02;;;;;;;8.93;3.93;;;1.90;99.90;;;;;;5071584;28;20111;-77
2024/01/16 11:36:47;;;;;;;8.27;3.90;;;1.90;99.90;;;;;;5073315;28;20119;-76
2024/01/16 11:39:20;;;;;;;6.37;3.40;;;1.90;99.90;;;;;;5091953;28;20023;-76
2024/01/16 11:41:53;;;;;;;8.57;3.87;;;2.00;99.90;;;;;;5074786;28;20043;-77
2024/01/16 11:44:37;;;;;;;7.87;3.50;;;2.00;99.90;;;;;;5075710;28;20039;-76
2024/01/16 11:47:04;;;;;;;7.87;3.43;;;2.00;99.90;;;;;;5076349;28;20059;-76
2024/01/16 11:49:32;;;;;;;11.90;3.53;;;2.00;99.90;;;;;;5074830;28;20127;-78
2024/01/16 11:51:59;;;;;;;7.30;3.23;;;2.00;99.90;;;;;;5058048;28;20051;-77
2024/01/16 11:54:24;;;;;;;11.17;3.70;;;2.00;99.90;;;;;;5074236;28;20020;-78
2024/01/16 11:57:18;;;;;;;7.37;3.50;;;2.10;99.90;;;;;;5074832;28;20027;-78
2024/01/16 12:00:01;;;;;;;7.53;3.40;;;2.10;99.90;;;;;;5075354;28;20028;-78
2024/01/16 12:02:41;;;;;;;7.60;3.43;;;2.10;99.90;;;;;;5075051;28;20024;-77
2024/01/16 12:05:10;;;;;;;10.10;3.70;;;2.10;99.90;;;;;;5075717;28;20016;-85
2024/01/16 12:07:45;;;;;;;10.90;3.53;;;2.10;99.90;;;;;;5071743;28;20483;-77
2024/01/16 12:10:10;;;;;;;8.50;3.30;;;2.00;99.90;;;;;;5074567;28;20524;-87
2024/01/16 12:12:36;;;;;;;6.60;3.30;;;2.00;99.90;;;;;;5074000;28;20099;-76
2024/01/16 12:15:01;;;;;;;12.80;3.27;;;2.10;99.90;;;;;;5073686;28;20024;-77
2024/01/16 12:17:31;;;;;;;4.80;2.73;;;2.20;99.90;;;;;;5074325;28;20024;-77
2024/01/16 12:19:57;;;;;;;7.40;2.63;;;2.30;99.90;;;;;;5074338;28;20043;-77
2024/01/16 12:22:23;;;;;;;6.10;2.80;;;2.40;99.90;;;;;;5074066;28;20090;-80
2024/01/16 12:24:49;;;;;;;7.07;3.33;;;2.60;99.90;;;;;;5093674;28;20512;-78
2024/01/16 12:27:15;;;;;;;9.40;2.97;;;2.70;99.90;;;;;;5073867;28;20048;-76
2024/01/16 12:29:42;;;;;;;7.67;3.07;;;2.90;99.90;;;;;;5092192;28;20457;-77
2024/01/16 12:32:08;;;;;;;5.40;2.87;;;3.10;99.90;;;;;;5074014;28;20391;-76
2024/01/16 12:34:45;;;;;;;6.73;2.80;;;3.20;99.90;;;;;;5073926;28;20111;-77
2024/01/16 12:37:12;;;;;;;6.67;2.70;;;3.30;99.90;;;;;;5070788;28;20020;-78
2024/01/16 12:39:38;;;;;;;4.27;2.63;;;3.30;99.90;;;;;;5092587;28;20044;-77
2024/01/16 12:42:04;;;;;;;4.97;2.60;;;3.40;99.90;;;;;;5074145;28;20123;-76
2024/01/16 12:44:30;;;;;;;6.00;2.50;;;3.40;99.90;;;;;;5073985;28;20020;-77